createdAt,value
2023-01-23T00:00:29.281Z,103394.61
2023-01-23T00:04:59.360Z,103394.59
2023-01-23T00:09:29.439Z,103390.77
2023-01-23T00:17:39.603Z,103393.31
2023-01-23T00:22:08.566Z,103399.11
2023-01-23T00:26:30.690Z,103404.94
2023-01-23T00:50:35.930Z,103427.92
2023-01-23T00:55:05.442Z,103424.77
2023-01-23T00:59:34.354Z,103428.13
2023-01-23T01:03:45.256Z,103436.00
2023-01-23T01:08:14.916Z,103440.41
2023-01-23T01:29:14.571Z,103450.10
2023-01-23T01:33:43.445Z,103456.52
2023-01-23T01:38:11.288Z,103462.02
2023-01-23T01:42:25.501Z,103465.77
2023-01-23T02:04:00.893Z,103469.15
2023-01-23T02:08:39.043Z,103469.34
2023-01-23T02:13:08.484Z,103465.95
2023-01-23T02:17:27.481Z,103472.47
2023-01-23T02:21:56.930Z,103478.69
2023-01-23T02:40:09.602Z,103482.48
2023-01-23T02:44:28.638Z,103477.16
2023-01-23T02:48:59.110Z,103478.65
2023-01-23T03:10:08.403Z,103478.09
2023-01-23T03:14:36.007Z,103477.18
2023-01-23T03:18:58.521Z,103480.98
2023-01-23T03:40:21.584Z,103496.39
2023-01-23T03:44:51.278Z,103500.13
2023-01-23T03:49:20.294Z,103504.60
2023-01-23T04:23:30.328Z,103522.96
2023-01-23T04:27:59.228Z,103525.52
2023-01-23T04:32:20.870Z,103525.84
2023-01-23T04:40:36.328Z,103519.67
2023-01-23T04:45:05.459Z,103530.20
2023-01-23T05:08:24.861Z,103564.93
2023-01-23T05:12:53.735Z,103566.06
2023-01-23T05:17:03.109Z,103569.64
2023-01-23T05:21:33.567Z,103572.91
2023-01-23T05:38:11.730Z,103584.95
2023-01-23T05:42:41.401Z,103585.90
2023-01-23T05:47:26.163Z,103583.63
2023-01-23T05:51:56.008Z,103590.80
2023-01-23T06:17:42.807Z,103603.10
2023-01-23T06:21:31.644Z,103603.79
2023-01-23T06:24:53.267Z,103605.58
2023-01-23T06:29:11.700Z,103613.98
2023-01-23T06:33:12.492Z,103615.48
2023-01-23T06:37:41.840Z,103613.13
2023-01-23T06:41:30.075Z,103612.77
2023-01-23T06:45:54.637Z,103612.20
2023-01-23T06:49:28.319Z,103612.11
2023-01-23T06:53:07.723Z,103620.23
2023-01-23T06:57:37.734Z,103622.91
2023-01-23T07:01:55.257Z,103634.20
2023-01-23T07:05:56.087Z,103635.13
2023-01-23T07:14:21.012Z,103642.61
2023-01-23T07:17:41.047Z,103651.96
2023-01-23T07:20:39.140Z,103652.56
2023-01-23T07:24:28.870Z,103656.81
2023-01-23T07:28:26.957Z,103658.77
2023-01-23T07:31:37.847Z,103666.24
2023-01-23T07:35:28.143Z,103668.86
2023-01-23T07:39:02.421Z,103667.28
2023-01-23T07:42:28.039Z,103669.37
2023-01-23T07:45:33.960Z,103669.08
2023-01-23T07:49:11.303Z,103667.34
2023-01-23T07:52:23.338Z,103666.17
2023-01-23T07:55:53.998Z,103666.83
2023-01-23T07:59:52.553Z,103664.64
2023-01-23T08:03:32.635Z,103671.11
2023-01-23T08:07:42.032Z,103675.67
2023-01-23T08:11:39.342Z,103675.58
2023-01-23T08:19:43.465Z,103678.15
2023-01-23T08:27:20.760Z,103686.91
2023-01-23T08:43:48.466Z,103686.61
2023-01-23T08:46:49.264Z,103693.52
2023-01-23T08:50:53.508Z,103695.37
2023-01-23T08:54:58.765Z,103703.29
2023-01-23T08:59:28.199Z,103705.58
2023-01-23T09:03:37.704Z,103710.29
2023-01-23T09:07:32.023Z,103706.64
2023-01-23T09:10:57.636Z,103712.23
2023-01-23T09:14:47.584Z,103715.48
2023-01-23T09:18:33.751Z,103716.75
2023-01-23T09:21:34.164Z,103723.55
2023-01-23T09:25:11.937Z,103721.38
2023-01-23T09:29:16.176Z,103721.47
2023-01-23T09:32:54.723Z,103732.80
2023-01-23T09:35:52.995Z,103738.02
2023-01-23T09:39:05.266Z,103741.31
2023-01-23T09:42:37.636Z,103740.01
2023-01-23T09:46:26.975Z,103743.41
2023-01-23T09:50:00.628Z,103745.33
2023-01-23T09:54:03.790Z,103753.58
2023-01-23T10:01:48.896Z,103750.74
2023-01-23T10:05:17.390Z,103752.75
2023-01-23T10:09:40.448Z,103754.20
2023-01-23T10:13:59.113Z,103751.48
2023-01-23T10:27:00.853Z,103759.70
2023-01-23T10:31:07.044Z,103763.09
2023-01-23T10:54:08.504Z,103775.88
2023-01-23T10:58:00.252Z,103781.41
2023-01-23T11:02:14.495Z,103778.83
2023-01-23T11:06:21.155Z,103776.85
2023-01-23T11:10:48.510Z,103778.48
2023-01-23T11:18:26.202Z,103775.45
2023-01-23T11:23:06.111Z,103777.33
2023-01-23T11:26:35.712Z,103774.21
2023-01-23T11:30:37.133Z,103773.67
2023-01-23T11:34:48.498Z,103777.41
2023-01-23T11:38:53.013Z,103772.23
2023-01-23T11:42:11.575Z,103769.13
2023-01-23T11:46:50.936Z,103769.21
2023-01-23T11:50:56.201Z,103769.22
2023-01-23T11:55:23.014Z,103769.41
2023-01-23T11:59:42.276Z,103760.21
2023-01-23T12:04:05.533Z,103761.35
2023-01-23T12:13:25.275Z,103743.77
2023-01-23T12:40:02.954Z,103743.11
2023-01-23T12:44:42.257Z,103751.76
2023-01-23T12:48:58.637Z,103744.75
2023-01-23T12:53:30.250Z,103739.02
2023-01-23T12:58:08.988Z,103739.39
2023-01-23T13:07:45.067Z,103736.23
2023-01-23T13:12:21.307Z,103730.48
2023-01-23T13:16:45.829Z,103729.31
2023-01-23T13:21:31.631Z,103729.22
2023-01-23T13:25:55.290Z,103730.48
2023-01-23T13:30:24.017Z,103729.77
2023-01-23T13:34:59.053Z,103728.69
2023-01-23T14:46:55.292Z,103742.55
2023-01-23T14:51:24.901Z,103743.72
2023-01-23T14:56:02.321Z,103745.84
2023-01-23T15:04:38.166Z,103753.00
2023-01-23T15:09:07.673Z,103757.83
2023-01-23T15:35:16.613Z,103777.16
2023-01-23T15:39:48.792Z,103777.52
2023-01-23T15:44:08.897Z,103784.60
2023-01-23T16:06:34.056Z,103781.77
2023-01-23T16:10:56.554Z,103785.98
2023-01-23T16:15:25.929Z,103786.41
2023-01-23T16:19:55.521Z,103792.58
2023-01-23T17:06:59.214Z,103797.44
2023-01-23T17:11:28.628Z,103792.56
2023-01-23T17:16:18.580Z,103792.90
2023-01-23T17:37:19.826Z,103804.80
2023-01-23T17:41:55.111Z,103803.23
2023-01-23T17:46:24.844Z,103806.77
2023-01-23T17:50:57.793Z,103808.16
2023-01-23T17:55:13.487Z,103815.00
2023-01-23T18:21:34.356Z,103812.74
2023-01-23T18:25:54.403Z,103810.75
2023-01-23T18:43:58.165Z,103814.02
2023-01-23T18:48:24.273Z,103816.12
2023-01-23T18:52:58.234Z,103814.48
2023-01-23T18:57:30.188Z,103814.77
2023-01-23T19:02:15.109Z,103815.64
2023-01-23T19:23:37.442Z,103828.20
2023-01-23T19:28:05.527Z,103834.16
2023-01-23T19:32:17.572Z,103828.20
2023-01-23T19:41:38.556Z,103833.47
2023-01-23T19:45:38.622Z,103837.52
2023-01-23T19:50:08.012Z,103836.23
2023-01-23T19:54:27.932Z,103837.45
2023-01-23T20:17:09.336Z,103849.94
2023-01-23T20:21:38.936Z,103853.67
2023-01-23T20:26:08.435Z,103855.55
2023-01-23T20:30:33.029Z,103862.50
2023-01-23T21:00:43.193Z,103861.07
2023-01-23T21:05:12.593Z,103868.52
2023-01-23T21:09:41.809Z,103872.08
2023-01-23T21:14:03.280Z,103878.14
2023-01-23T21:18:31.517Z,103881.68
2023-01-23T21:22:48.370Z,103872.61
2023-01-23T21:44:34.597Z,103877.83
2023-01-23T21:49:05.155Z,103870.42
2023-01-23T21:53:34.390Z,103860.52
2023-01-23T22:16:12.213Z,103859.86
2023-01-23T22:20:24.605Z,103864.89
2023-01-23T22:24:54.794Z,103864.15
2023-01-23T22:41:53.401Z,103852.17
2023-01-23T22:46:13.998Z,103851.85
2023-01-23T22:50:44.618Z,103856.21
2023-01-23T22:55:12.964Z,103857.02
2023-01-23T22:59:18.462Z,103852.73
2023-01-23T23:07:34.200Z,103866.13
2023-01-23T23:11:28.062Z,103869.16
2023-01-23T23:15:57.597Z,103872.81
2023-01-23T23:20:26.551Z,103879.27
2023-01-23T23:24:37.203Z,103866.48
2023-01-23T23:46:11.425Z,103853.30
2023-01-23T23:50:30.879Z,103858.03
2023-01-23T23:55:00.720Z,103860.39
